createdAt,value
2023-04-07T00:00:21.939Z,95341.09
2023-04-07T00:01:23.689Z,95343.16
2023-04-07T00:02:25.775Z,95340.09
2023-04-07T00:03:29.742Z,95339.78
2023-04-07T00:04:31.715Z,95333.97
2023-04-07T00:05:33.509Z,95328.31
2023-04-07T00:06:35.615Z,95335.34
2023-04-07T00:07:42.204Z,95328.44
2023-04-07T00:08:54.542Z,95325.81
2023-04-07T00:09:56.176Z,95325.81
2023-04-07T00:10:58.541Z,95324.56
2023-04-07T00:12:02.653Z,95322.66
2023-04-07T00:13:06.530Z,95320.25
2023-04-07T00:14:08.298Z,95311.19
2023-04-07T00:15:10.159Z,95320.69
2023-04-07T00:16:14.150Z,95310.31
2023-04-07T00:17:15.794Z,95316.59
2023-04-07T00:18:17.417Z,95310.28
2023-04-07T00:19:19.253Z,95307.66
2023-04-07T00:20:21.183Z,95309.47
2023-04-07T00:21:22.823Z,95306.47
2023-04-07T00:22:24.438Z,95310.47
2023-04-07T00:23:27.062Z,95311.22
2023-04-07T00:24:34.315Z,95316.81
2023-04-07T00:25:36.611Z,95307.56
2023-04-07T00:26:38.405Z,95310.38
2023-04-07T00:27:40.326Z,95311.22
2023-04-07T00:28:41.978Z,95312.22
2023-04-07T00:29:46.847Z,95310.81
2023-04-07T00:30:50.776Z,95314.28
2023-04-07T00:31:52.525Z,95312.00
2023-04-07T00:32:54.257Z,95308.78
2023-04-07T00:33:57.715Z,95309.59
2023-04-07T00:35:02.616Z,95299.88
2023-04-07T00:36:04.673Z,95303.53
2023-04-07T00:37:06.560Z,95301.94
2023-04-07T00:38:08.412Z,95298.50
2023-04-07T00:39:10.072Z,95299.25
2023-04-07T00:40:14.327Z,95286.91
2023-04-07T00:41:16.613Z,95296.63
2023-04-07T00:42:20.624Z,95292.38
2023-04-07T00:43:22.122Z,95286.03
2023-04-07T00:44:23.872Z,95288.59
2023-04-07T00:45:27.824Z,95284.59
2023-04-07T00:46:29.840Z,95284.00
2023-04-07T00:47:31.440Z,95281.56
2023-04-07T00:48:36.582Z,95282.94
2023-04-07T00:49:41.702Z,95282.16
2023-04-07T00:50:45.994Z,95292.13
2023-04-07T00:51:47.863Z,95282.06
2023-04-07T00:52:50.480Z,95279.69
2023-04-07T00:53:52.169Z,95278.31
2023-04-07T00:54:55.876Z,95274.31
2023-04-07T00:55:57.677Z,95274.72
2023-04-07T00:56:59.549Z,95274.13
2023-04-07T00:58:01.216Z,95270.41
2023-04-07T00:59:04.464Z,95274.06
2023-04-07T01:00:09.983Z,95266.41
2023-04-07T01:02:04.396Z,95269.91
2023-04-07T01:03:12.422Z,95268.47
2023-04-07T01:04:53.034Z,95270.56
2023-04-07T01:05:58.784Z,95270.94
2023-04-07T01:07:24.288Z,95274.25
2023-04-07T01:08:51.654Z,95265.78
2023-04-07T01:10:04.948Z,95259.53
2023-04-07T01:11:30.992Z,95259.56
2023-04-07T01:12:57.181Z,95264.59
2023-04-07T01:14:01.015Z,95258.31
2023-04-07T01:15:10.805Z,95253.06
2023-04-07T01:16:26.271Z,95256.47
2023-04-07T01:17:29.812Z,95259.69
2023-04-07T01:18:34.556Z,95257.66
2023-04-07T01:19:59.507Z,95256.66
2023-04-07T01:21:06.408Z,95262.31
2023-04-07T01:22:14.687Z,95260.50
2023-04-07T01:23:50.493Z,95258.94
2023-04-07T01:25:10.319Z,95261.34
2023-04-07T01:26:36.037Z,95259.94
2023-04-07T01:27:40.540Z,95261.13
2023-04-07T01:29:07.639Z,95259.94
2023-04-07T01:30:16.099Z,95259.88
2023-04-07T01:31:18.026Z,95261.28
2023-04-07T01:32:20.852Z,95258.84
2023-04-07T01:33:24.794Z,95252.81
2023-04-07T01:34:29.758Z,95250.97
2023-04-07T01:35:34.898Z,95252.00
2023-04-07T01:36:36.866Z,95253.00
2023-04-07T01:37:39.068Z,95245.53
2023-04-07T01:38:42.062Z,95244.13
2023-04-07T01:39:44.143Z,95246.31
2023-04-07T01:40:49.616Z,95242.84
2023-04-07T01:41:53.523Z,95237.41
2023-04-07T01:42:57.741Z,95231.16
2023-04-07T01:44:01.898Z,95229.13
2023-04-07T01:45:07.824Z,95230.72
2023-04-07T01:46:09.970Z,95229.56
2023-04-07T01:47:12.111Z,95226.63
2023-04-07T01:48:15.876Z,95220.13
2023-04-07T01:49:18.504Z,95229.31
2023-04-07T01:50:21.400Z,95229.47
2023-04-07T01:51:24.324Z,95234.94
2023-04-07T01:52:27.945Z,95229.47
2023-04-07T01:53:32.404Z,95228.69
2023-04-07T01:54:36.857Z,95225.25
2023-04-07T01:55:41.638Z,95225.69
2023-04-07T01:56:45.029Z,95230.94
2023-04-07T01:57:46.680Z,95223.72
2023-04-07T01:58:52.169Z,95220.28
2023-04-07T01:59:58.387Z,95220.50
2023-04-07T02:01:01.931Z,95210.66
2023-04-07T02:02:03.951Z,95216.16
2023-04-07T02:03:20.867Z,95205.69
2023-04-07T02:04:33.974Z,95203.16
2023-04-07T02:05:38.829Z,95197.91
2023-04-07T02:06:50.069Z,95197.75
2023-04-07T02:07:59.848Z,95198.94
2023-04-07T02:09:07.909Z,95193.34
2023-04-07T02:10:14.149Z,95193.78
2023-04-07T02:11:20.989Z,95189.38
2023-04-07T02:12:26.432Z,95187.81
2023-04-07T02:13:49.170Z,95180.41
2023-04-07T02:14:51.621Z,95182.00
2023-04-07T02:15:56.335Z,95182.22
2023-04-07T02:17:01.442Z,95185.44
2023-04-07T02:18:04.340Z,95184.03
2023-04-07T02:19:06.212Z,95186.66
2023-04-07T02:20:10.044Z,95181.63
2023-04-07T02:21:15.117Z,95181.00
2023-04-07T02:22:20.559Z,95178.19
2023-04-07T02:23:22.512Z,95175.38
2023-04-07T02:24:24.287Z,95182.66
2023-04-07T02:25:27.025Z,95177.84
2023-04-07T02:26:35.410Z,95177.41
2023-04-07T02:27:37.124Z,95177.22
2023-04-07T02:28:38.830Z,95180.03
2023-04-07T02:29:40.811Z,95176.81
2023-04-07T02:30:42.527Z,95169.97
2023-04-07T02:31:44.214Z,95176.72
2023-04-07T02:32:45.992Z,95171.41
2023-04-07T02:33:49.232Z,95177.31
2023-04-07T02:34:50.882Z,95168.84
2023-04-07T02:35:52.496Z,95168.91
2023-04-07T02:36:57.200Z,95165.88
2023-04-07T02:37:58.981Z,95164.88
2023-04-07T02:39:00.931Z,95162.50
2023-04-07T02:40:03.941Z,95165.09
2023-04-07T02:41:06.691Z,95160.47
2023-04-07T02:42:08.288Z,95165.47
2023-04-07T02:43:10.316Z,95165.91
2023-04-07T02:44:11.996Z,95161.47
2023-04-07T02:45:13.655Z,95159.47
2023-04-07T02:46:16.721Z,95161.31
2023-04-07T02:47:21.116Z,95159.06
2023-04-07T02:48:27.429Z,95150.81
2023-04-07T02:49:29.120Z,95151.81
2023-04-07T02:50:30.702Z,95152.28
2023-04-07T02:51:32.469Z,95147.84
2023-04-07T02:52:34.093Z,95147.03
2023-04-07T02:53:38.136Z,95140.38
2023-04-07T02:54:42.722Z,95152.66
2023-04-07T02:55:46.417Z,95144.19
2023-04-07T02:56:50.540Z,95150.63
2023-04-07T02:57:54.791Z,95153.66
2023-04-07T02:59:10.994Z,95148.59
2023-04-07T03:00:17.148Z,95159.47
2023-04-07T03:01:36.765Z,95145.78
2023-04-07T03:02:38.778Z,95144.34
2023-04-07T03:03:42.257Z,95136.28
2023-04-07T03:04:52.094Z,95138.31
2023-04-07T03:05:55.258Z,95136.91
2023-04-07T03:06:56.852Z,95131.72
2023-04-07T03:07:58.588Z,95126.88
2023-04-07T03:09:00.617Z,95130.06
2023-04-07T03:10:02.459Z,95132.09
2023-04-07T03:11:06.885Z,95132.09
2023-04-07T03:12:11.220Z,95124.88
2023-04-07T03:13:16.202Z,95120.22
2023-04-07T03:14:17.899Z,95122.44
2023-04-07T03:15:22.416Z,95118.03
2023-04-07T03:16:25.638Z,95109.34
2023-04-07T03:17:43.202Z,95113.22
2023-04-07T03:18:45.578Z,95101.56
2023-04-07T03:19:47.401Z,95098.34
2023-04-07T03:20:52.930Z,95107.47
2023-04-07T03:21:54.678Z,95099.59
2023-04-07T03:22:56.272Z,95107.22
2023-04-07T03:24:01.740Z,95098.78
2023-04-07T03:25:03.758Z,95091.16
2023-04-07T03:26:05.441Z,95095.97
2023-04-07T03:27:10.450Z,95096.22
2023-04-07T03:28:19.628Z,95097.59
2023-04-07T03:29:21.245Z,95099.25
2023-04-07T03:30:23.187Z,95098.63
2023-04-07T03:31:25.514Z,95099.84
2023-04-07T03:32:28.575Z,95096.81
2023-04-07T03:33:30.333Z,95088.38
2023-04-07T03:34:34.200Z,95091.34
2023-04-07T03:35:38.510Z,95093.38
2023-04-07T03:36:41.418Z,95089.75
2023-04-07T03:37:43.476Z,95085.53
2023-04-07T03:38:49.625Z,95095.38
2023-04-07T03:39:52.916Z,95090.34
2023-04-07T03:41:10.418Z,95091.34
2023-04-07T03:42:12.150Z,95087.72
2023-04-07T03:43:15.743Z,95091.41
2023-04-07T03:44:17.815Z,95086.75
2023-04-07T03:45:19.914Z,95085.75
2023-04-07T03:46:27.006Z,95090.41
2023-04-07T03:47:29.174Z,95085.94
2023-04-07T03:48:34.885Z,95097.22
2023-04-07T03:49:41.036Z,95091.00
2023-04-07T03:50:45.237Z,95087.19
2023-04-07T03:51:50.082Z,95085.56
2023-04-07T03:52:53.503Z,95086.41
2023-04-07T03:53:59.208Z,95077.75
2023-04-07T03:55:07.030Z,95083.78
2023-04-07T03:56:12.438Z,95082.19
2023-04-07T03:57:21.060Z,95072.34
2023-04-07T03:58:23.963Z,95074.94
2023-04-07T03:59:25.453Z,95067.94
2023-04-07T04:00:33.668Z,95064.13
2023-04-07T04:01:44.249Z,95059.09
2023-04-07T04:02:50.063Z,95062.72
2023-04-07T04:03:55.080Z,95055.69
2023-04-07T04:05:02.034Z,95058.91
2023-04-07T04:06:03.731Z,95053.72
2023-04-07T04:07:07.069Z,95048.25
2023-04-07T04:08:29.523Z,95047.44
2023-04-07T04:09:31.494Z,95046.22
2023-04-07T04:10:34.122Z,95050.22
2023-04-07T04:11:36.499Z,95046.41
2023-04-07T04:12:44.016Z,95046.19
2023-04-07T04:13:48.190Z,95038.16
2023-04-07T04:14:49.846Z,95040.59
2023-04-07T04:15:52.522Z,95041.19
2023-04-07T04:16:55.693Z,95045.81
2023-04-07T04:18:02.012Z,95047.19
2023-04-07T04:19:05.216Z,95039.34
2023-04-07T04:20:07.705Z,95037.81
2023-04-07T04:21:18.270Z,95042.19
2023-04-07T04:22:21.365Z,95046.22
2023-04-07T04:23:32.184Z,95043.81
2023-04-07T04:24:34.484Z,95039.41
2023-04-07T04:25:39.739Z,95039.81
2023-04-07T04:26:43.517Z,95036.19
2023-04-07T04:27:47.511Z,95037.78
2023-04-07T04:28:55.824Z,95031.13
2023-04-07T04:29:57.815Z,95033.75
2023-04-07T04:31:41.647Z,95031.34
2023-04-07T04:32:44.710Z,95026.91
2023-04-07T04:33:46.963Z,95028.53
2023-04-07T04:34:49.175Z,95030.97
2023-04-07T04:35:53.352Z,95033.75
2023-04-07T04:36:55.884Z,95034.13
2023-04-07T04:37:57.509Z,95037.78
2023-04-07T04:39:02.058Z,95046.00
2023-04-07T04:40:08.368Z,95040.34
2023-04-07T04:41:11.264Z,95043.56
2023-04-07T04:42:13.450Z,95032.09
2023-04-07T04:43:17.598Z,95037.31
2023-04-07T04:44:21.915Z,95034.72
2023-04-07T04:45:23.828Z,95032.09
2023-04-07T04:46:25.754Z,95036.38
2023-04-07T04:47:27.478Z,95031.56
2023-04-07T04:48:29.266Z,95036.38
2023-04-07T04:49:31.534Z,95036.97
2023-04-07T04:50:36.592Z,95037.38
2023-04-07T04:51:43.236Z,95041.78
2023-04-07T04:52:50.912Z,95038.34
2023-04-07T04:53:56.646Z,95039.94
2023-04-07T04:55:00.296Z,95040.53
2023-04-07T04:56:05.358Z,95036.69
2023-04-07T04:57:25.635Z,95034.28
2023-04-07T04:58:27.415Z,95035.06
2023-04-07T04:59:31.546Z,95039.53
2023-04-07T05:00:37.761Z,95034.88
2023-04-07T05:01:42.666Z,95040.13
2023-04-07T05:02:48.805Z,95033.47
2023-04-07T05:03:51.302Z,95032.03
2023-04-07T05:05:00.568Z,95032.44
2023-04-07T05:06:04.507Z,95031.63
2023-04-07T05:07:06.707Z,95033.03
2023-04-07T05:08:11.401Z,95027.38
2023-04-07T05:09:17.285Z,95036.84
2023-04-07T05:10:21.054Z,95027.97
2023-04-07T05:11:25.891Z,95038.03
2023-04-07T05:12:30.180Z,95035.00
2023-04-07T05:13:35.657Z,95037.44
2023-04-07T05:14:38.927Z,95040.03
2023-04-07T05:15:43.323Z,95040.88
2023-04-07T05:16:47.112Z,95041.22
2023-04-07T05:17:56.283Z,95042.88
2023-04-07T05:19:01.873Z,95045.28
2023-04-07T05:20:04.629Z,95051.91
2023-04-07T05:21:14.773Z,95049.31
2023-04-07T05:22:16.649Z,95054.91
2023-04-07T05:23:21.447Z,95048.06
2023-04-07T05:24:27.312Z,95053.31
2023-04-07T05:25:32.891Z,95054.91
2023-04-07T05:26:38.074Z,95046.47
2023-04-07T05:27:42.934Z,95049.91
2023-04-07T05:28:49.083Z,95048.88
2023-04-07T05:29:54.461Z,95046.63
2023-04-07T05:31:01.646Z,95048.84
2023-04-07T05:32:06.493Z,95053.66
2023-04-07T05:33:08.302Z,95052.28
2023-04-07T05:34:22.968Z,95055.84
2023-04-07T05:35:28.743Z,95057.44
2023-04-07T05:36:34.435Z,95059.63
2023-04-07T05:37:36.167Z,95053.41
2023-04-07T05:38:39.832Z,95065.69
2023-04-07T05:39:46.956Z,95064.84
2023-04-07T05:40:49.593Z,95063.66
2023-04-07T05:41:59.122Z,95068.28
2023-04-07T05:43:02.244Z,95070.69
2023-04-07T05:44:06.652Z,95071.88
2023-04-07T05:45:12.194Z,95069.63
2023-04-07T05:46:19.679Z,95072.19
2023-04-07T05:47:31.465Z,95079.47
2023-04-07T05:48:33.239Z,95092.13
2023-04-07T05:49:35.238Z,95087.78
2023-04-07T05:50:41.125Z,95097.34
2023-04-07T05:51:47.643Z,95104.44
2023-04-07T05:52:50.884Z,95097.59
2023-04-07T05:54:03.436Z,95088.72
2023-04-07T05:55:06.859Z,95086.31
2023-04-07T05:56:08.593Z,95087.53
2023-04-07T05:57:19.695Z,95080.34
2023-04-07T05:58:23.145Z,95087.00
2023-04-07T05:59:28.474Z,95098.47
2023-04-07T06:00:33.399Z,95104.91
2023-04-07T06:01:44.144Z,95106.69
2023-04-07T06:02:46.542Z,95113.91
2023-04-07T06:03:52.813Z,95112.69
2023-04-07T06:04:57.492Z,95106.22
2023-04-07T06:05:59.748Z,95115.06
2023-04-07T06:07:02.600Z,95123.09
2023-04-07T06:08:04.301Z,95115.00
2023-04-07T06:09:07.040Z,95125.03
2023-04-07T06:10:09.968Z,95132.78
2023-04-07T06:11:11.546Z,95131.63
2023-04-07T06:12:13.439Z,95137.81
2023-04-07T06:13:15.166Z,95136.97
2023-04-07T06:14:19.876Z,95140.00
2023-04-07T06:15:21.654Z,95145.72
2023-04-07T06:16:23.393Z,95140.06
2023-04-07T06:17:25.243Z,95154.56
2023-04-07T06:18:26.942Z,95156.19
2023-04-07T06:19:30.945Z,95158.63
2023-04-07T06:20:32.728Z,95151.78
2023-04-07T06:21:34.325Z,95162.88
2023-04-07T06:22:39.549Z,95164.22
2023-04-07T06:23:44.779Z,95164.22
2023-04-07T06:24:46.573Z,95161.84
2023-04-07T06:25:51.922Z,95167.25
2023-04-07T06:26:54.894Z,95163.41
2023-04-07T06:27:56.760Z,95170.22
2023-04-07T06:28:58.897Z,95170.69
2023-04-07T06:30:01.089Z,95162.19
2023-04-07T06:31:02.741Z,95156.13
2023-04-07T06:32:04.996Z,95160.94
2023-04-07T06:33:06.981Z,95161.72
2023-04-07T06:34:08.773Z,95159.91
2023-04-07T06:35:10.616Z,95162.97
2023-04-07T06:36:12.581Z,95154.47
2023-04-07T06:37:14.535Z,95159.91
2023-04-07T06:38:16.608Z,95170.56
2023-04-07T06:39:18.393Z,95172.97
2023-04-07T06:40:20.094Z,95181.44
2023-04-07T06:41:21.741Z,95180.03
2023-04-07T06:42:23.395Z,95178.38
2023-04-07T06:43:34.309Z,95181.22
2023-04-07T06:44:40.328Z,95176.56
2023-04-07T06:45:42.033Z,95180.13
2023-04-07T06:46:44.373Z,95174.59
2023-04-07T06:47:47.240Z,95179.59
2023-04-07T06:48:48.904Z,95172.53
2023-04-07T06:49:50.655Z,95178.63
2023-04-07T06:50:52.502Z,95178.00
2023-04-07T06:51:56.932Z,95173.16
2023-04-07T06:52:58.603Z,95180.19
2023-04-07T06:54:00.466Z,95183.47
2023-04-07T06:55:02.343Z,95181.44
2023-04-07T06:56:06.135Z,95185.25
2023-04-07T06:57:12.255Z,95185.09
2023-04-07T06:58:14.022Z,95186.09
2023-04-07T06:59:18.226Z,95191.41
2023-04-07T07:00:20.229Z,95190.81
2023-04-07T07:01:22.111Z,95198.06
2023-04-07T07:02:24.117Z,95193.41
2023-04-07T07:03:29.484Z,95179.31
2023-04-07T07:04:31.885Z,95178.50
2023-04-07T07:05:33.758Z,95183.75
2023-04-07T07:06:35.580Z,95177.53
2023-04-07T07:07:37.926Z,95177.13
2023-04-07T07:08:39.598Z,95180.75
2023-04-07T07:09:41.460Z,95177.25
2023-04-07T07:10:43.160Z,95177.59
2023-04-07T07:11:44.767Z,95177.66
2023-04-07T07:12:46.493Z,95180.84
2023-04-07T07:13:48.307Z,95187.31
2023-04-07T07:14:52.725Z,95186.47
2023-04-07T07:15:57.863Z,95191.13
2023-04-07T07:16:59.533Z,95202.00
2023-04-07T07:18:01.611Z,95204.19
2023-04-07T07:19:03.339Z,95204.97
2023-04-07T07:20:05.844Z,95206.63
2023-04-07T07:21:08.269Z,95204.19
2023-04-07T07:22:10.028Z,95221.72
2023-04-07T07:23:11.670Z,95218.72
2023-04-07T07:24:13.230Z,95219.16
2023-04-07T07:25:15.038Z,95210.72
2023-04-07T07:26:16.522Z,95204.88
2023-04-07T07:27:18.114Z,95199.03
2023-04-07T07:28:21.667Z,95194.63
2023-04-07T07:29:23.539Z,95199.84
2023-04-07T07:30:27.612Z,95206.28
2023-04-07T07:31:29.224Z,95206.69
2023-04-07T07:32:33.345Z,95208.31
2023-04-07T07:33:35.084Z,95209.53
2023-04-07T07:34:36.673Z,95214.16
2023-04-07T07:35:38.487Z,95213.72
2023-04-07T07:36:42.133Z,95214.34
2023-04-07T07:37:44.670Z,95211.13
2023-04-07T07:38:46.418Z,95211.13
2023-04-07T07:39:47.899Z,95205.44
2023-04-07T07:40:49.602Z,95206.28
2023-04-07T07:41:51.600Z,95205.88
2023-04-07T07:42:53.280Z,95209.28
2023-04-07T07:43:57.213Z,95214.94
2023-04-07T07:44:59.602Z,95209.50
2023-04-07T07:46:01.511Z,95208.69
2023-04-07T07:47:03.241Z,95211.50
2023-04-07T07:48:04.861Z,95206.06
2023-04-07T07:49:06.460Z,95207.88
2023-04-07T07:50:08.399Z,95212.31
2023-04-07T07:51:10.138Z,95208.31
2023-04-07T07:52:11.838Z,95207.88
2023-04-07T07:53:13.530Z,95206.28
2023-04-07T07:54:15.514Z,95202.25
2023-04-07T07:55:20.703Z,95209.09
2023-04-07T07:56:22.548Z,95208.91
2023-04-07T07:57:26.570Z,95212.31
2023-04-07T07:58:28.241Z,95212.75
2023-04-07T07:59:30.638Z,95209.91
2023-04-07T08:00:32.383Z,95208.72
2023-04-07T08:01:36.375Z,95213.94
2023-04-07T08:02:38.891Z,95210.72
2023-04-07T08:03:40.973Z,95209.50
2023-04-07T08:04:42.899Z,95215.34
2023-04-07T08:05:44.895Z,95212.53
2023-04-07T08:06:46.667Z,95220.97
2023-04-07T08:07:49.086Z,95221.94
2023-04-07T08:08:50.945Z,95224.59
2023-04-07T08:09:52.470Z,95223.16
2023-04-07T08:10:54.214Z,95223.56
2023-04-07T08:11:56.068Z,95225.78
2023-04-07T08:12:57.729Z,95227.63
2023-04-07T08:13:59.357Z,95228.41
2023-04-07T08:15:01.270Z,95234.81
2023-04-07T08:16:03.002Z,95233.22
2023-04-07T08:17:04.742Z,95232.00
2023-04-07T08:18:07.201Z,95232.00
2023-04-07T08:19:08.995Z,95235.59
2023-04-07T08:20:11.763Z,95243.03
2023-04-07T08:21:13.436Z,95239.22
2023-04-07T08:22:15.349Z,95242.44
2023-04-07T08:23:19.361Z,95244.78
2023-04-07T08:24:25.855Z,95246.81
2023-04-07T08:25:28.687Z,95249.00
2023-04-07T08:26:30.395Z,95244.00
2023-04-07T08:27:31.968Z,95248.72
2023-04-07T08:28:33.710Z,95243.44
2023-04-07T08:29:37.689Z,95254.25
2023-04-07T08:30:39.379Z,95254.31
2023-04-07T08:31:41.417Z,95253.91
2023-04-07T08:32:45.716Z,95251.72
2023-04-07T08:33:47.579Z,95255.94
2023-04-07T08:34:49.645Z,95252.72
2023-04-07T08:35:51.541Z,95257.56
2023-04-07T08:36:53.442Z,95262.00
2023-04-07T08:37:55.185Z,95253.59
2023-04-07T08:38:57.005Z,95250.31
2023-04-07T08:39:58.788Z,95255.97
2023-04-07T08:41:03.028Z,95259.97
2023-04-07T08:42:05.179Z,95260.41
2023-04-07T08:43:09.949Z,95253.97
2023-04-07T08:44:13.329Z,95253.38
2023-04-07T08:45:17.303Z,95248.41
2023-04-07T08:46:21.959Z,95247.03
2023-04-07T08:47:27.951Z,95243.84
2023-04-07T08:48:34.145Z,95249.25
2023-04-07T08:49:40.870Z,95247.25
2023-04-07T08:50:45.475Z,95256.31
2023-04-07T08:51:48.535Z,95246.06
2023-04-07T08:52:54.115Z,95240.03
2023-04-07T08:54:05.695Z,95242.25
2023-04-07T08:55:08.529Z,95242.25
2023-04-07T08:56:14.550Z,95240.88
2023-04-07T08:57:18.008Z,95243.88
2023-04-07T08:58:20.381Z,95238.06
2023-04-07T08:59:28.637Z,95242.06
2023-04-07T09:00:31.880Z,95235.22
2023-04-07T09:01:35.802Z,95241.69
2023-04-07T09:02:39.877Z,95242.50
2023-04-07T09:03:48.902Z,95243.91
2023-04-07T09:04:51.514Z,95242.03
2023-04-07T09:05:54.026Z,95232.41
2023-04-07T09:06:55.950Z,95235.03
2023-04-07T09:07:57.558Z,95236.78
2023-04-07T09:08:59.289Z,95244.06
2023-04-07T09:10:01.772Z,95238.38
2023-04-07T09:11:06.561Z,95239.13
2023-04-07T09:12:08.264Z,95234.25
2023-04-07T09:13:09.966Z,95240.69
2023-04-07T09:14:11.592Z,95248.41
2023-04-07T09:15:15.959Z,95249.97
2023-04-07T09:16:18.046Z,95248.31
2023-04-07T09:17:20.683Z,95245.31
2023-04-07T09:18:22.449Z,95238.66
2023-04-07T09:19:25.285Z,95244.78
2023-04-07T09:20:27.111Z,95251.38
2023-04-07T09:21:47.719Z,95243.72
2023-04-07T09:22:50.499Z,95245.13
2023-04-07T09:23:52.161Z,95249.13
2023-04-07T09:25:09.233Z,95243.13
2023-04-07T09:26:28.196Z,95243.94
2023-04-07T09:27:29.959Z,95252.38
2023-04-07T09:28:47.379Z,95245.72
2023-04-07T09:30:11.677Z,95254.63
2023-04-07T09:31:13.718Z,95259.22
2023-04-07T09:32:41.700Z,95267.88
2023-04-07T09:33:43.583Z,95254.00
2023-04-07T09:34:45.074Z,95236.78
2023-04-07T09:35:53.587Z,95246.41
2023-04-07T09:36:56.847Z,95258.25
2023-04-07T09:38:03.509Z,95257.63
2023-04-07T09:39:08.853Z,95257.19
2023-04-07T09:40:11.066Z,95260.41
2023-04-07T09:41:16.056Z,95266.44
2023-04-07T09:42:17.747Z,95265.63
2023-04-07T09:43:19.498Z,95251.38
2023-04-07T09:44:22.514Z,95252.34
2023-04-07T09:45:34.420Z,95258.75
2023-04-07T09:47:00.957Z,95264.00
2023-04-07T09:48:07.716Z,95269.69
2023-04-07T09:49:09.489Z,95261.19
2023-04-07T09:50:11.130Z,95263.41
2023-04-07T09:51:14.993Z,95258.56
2023-04-07T09:52:17.594Z,95254.94
2023-04-07T09:53:20.255Z,95259.41
2023-04-07T09:54:36.118Z,95247.53
2023-04-07T09:55:40.906Z,95256.56
2023-04-07T09:56:42.760Z,95258.38
2023-04-07T09:57:45.362Z,95256.56
2023-04-07T09:58:47.435Z,95253.94
2023-04-07T09:59:52.072Z,95259.56
2023-04-07T10:00:53.905Z,95256.91
2023-04-07T10:01:56.976Z,95250.44
2023-04-07T10:02:59.199Z,95240.97
2023-04-07T10:04:03.711Z,95251.78
2023-04-07T10:05:06.127Z,95258.19
2023-04-07T10:06:08.042Z,95256.31
2023-04-07T10:07:11.165Z,95250.81
2023-04-07T10:08:12.921Z,95254.19
2023-04-07T10:09:14.817Z,95250.66
2023-04-07T10:10:18.978Z,95250.88
2023-04-07T10:11:21.131Z,95251.81
2023-04-07T10:12:24.604Z,95245.72
2023-04-07T10:13:27.486Z,95256.25
2023-04-07T10:14:32.191Z,95248.69
2023-04-07T10:15:34.246Z,95248.84
2023-04-07T10:16:39.849Z,95258.63
2023-04-07T10:17:47.061Z,95245.72
2023-04-07T10:18:49.138Z,95248.75
2023-04-07T10:19:51.407Z,95244.28
2023-04-07T10:20:54.520Z,95247.13
2023-04-07T10:21:59.231Z,95240.25
2023-04-07T10:23:13.396Z,95238.81
2023-04-07T10:24:47.213Z,95231.50
2023-04-07T10:25:51.318Z,95234.66
2023-04-07T10:27:08.288Z,95231.56
2023-04-07T10:28:12.722Z,95241.44
2023-04-07T10:29:15.729Z,95241.78
2023-04-07T10:30:24.836Z,95246.03
2023-04-07T10:31:27.445Z,95246.31
2023-04-07T10:32:29.282Z,95240.84
2023-04-07T10:33:51.296Z,95237.97
2023-04-07T10:34:57.545Z,95230.22
2023-04-07T10:36:07.557Z,95233.53
2023-04-07T10:37:14.279Z,95238.09
2023-04-07T10:38:18.317Z,95236.28
2023-04-07T10:39:20.490Z,95230.06
2023-04-07T10:40:27.887Z,95226.94
2023-04-07T10:41:44.301Z,95231.16
2023-04-07T10:42:47.753Z,95229.47
2023-04-07T10:43:52.406Z,95223.81
2023-04-07T10:44:56.990Z,95230.53
2023-04-07T10:46:00.937Z,95233.44
2023-04-07T10:47:06.302Z,95236.03
2023-04-07T10:48:13.343Z,95234.66
2023-04-07T10:49:21.519Z,95235.25
2023-04-07T10:50:25.832Z,95237.13
2023-04-07T10:51:27.525Z,95232.34
2023-04-07T10:52:29.112Z,95234.09
2023-04-07T10:53:37.071Z,95237.34
2023-04-07T10:54:39.870Z,95228.81
2023-04-07T10:55:46.295Z,95234.41
2023-04-07T10:57:02.940Z,95227.03
2023-04-07T10:58:22.986Z,95231.50
2023-04-07T10:59:27.690Z,95230.72
2023-04-07T11:00:29.585Z,95228.44
2023-04-07T11:01:34.640Z,95230.44
2023-04-07T11:02:39.462Z,95231.06
2023-04-07T11:03:52.377Z,95228.66
2023-04-07T11:04:56.603Z,95241.47
2023-04-07T11:06:04.535Z,95232.75
2023-04-07T11:07:09.083Z,95232.91
2023-04-07T11:08:10.826Z,95231.00
2023-04-07T11:09:19.285Z,95226.91
2023-04-07T11:10:23.041Z,95234.28
2023-04-07T11:11:39.487Z,95222.38
2023-04-07T11:12:43.443Z,95225.00
2023-04-07T11:13:47.275Z,95224.81
2023-04-07T11:14:49.229Z,95221.97
2023-04-07T11:15:54.086Z,95230.38
2023-04-07T11:16:56.346Z,95224.81
2023-04-07T11:18:08.082Z,95222.28
2023-04-07T11:19:09.999Z,95229.63
2023-04-07T11:20:13.879Z,95222.84
2023-04-07T11:21:19.545Z,95226.59
2023-04-07T11:23:27.352Z,95228.03
2023-04-07T11:24:39.387Z,95224.66
2023-04-07T11:25:46.515Z,95221.47
2023-04-07T11:26:50.947Z,95224.00
2023-04-07T11:27:53.179Z,95226.72
2023-04-07T11:28:57.539Z,95221.53
2023-04-07T11:29:59.690Z,95221.03
2023-04-07T11:31:01.563Z,95222.69
2023-04-07T11:32:04.371Z,95230.47
2023-04-07T11:33:07.320Z,95232.53
2023-04-07T11:34:09.329Z,95238.50
2023-04-07T11:35:11.701Z,95226.22
2023-04-07T11:36:13.350Z,95229.16
2023-04-07T11:37:21.362Z,95232.31
2023-04-07T11:38:28.270Z,95229.63
2023-04-07T11:39:33.310Z,95233.09
2023-04-07T11:40:38.745Z,95228.38
2023-04-07T11:41:47.383Z,95223.31
2023-04-07T11:42:49.133Z,95230.19
2023-04-07T11:44:03.686Z,95234.94
2023-04-07T11:45:08.968Z,95238.84
2023-04-07T11:46:16.102Z,95235.03
2023-04-07T11:47:17.894Z,95249.03
2023-04-07T11:48:32.384Z,95240.00
2023-04-07T11:49:33.979Z,95245.50
2023-04-07T11:50:42.823Z,95251.97
2023-04-07T11:51:47.243Z,95257.22
2023-04-07T11:52:48.929Z,95253.38
2023-04-07T11:53:58.610Z,95256.94
2023-04-07T11:55:01.293Z,95253.84
2023-04-07T11:56:12.549Z,95260.28
2023-04-07T11:57:17.250Z,95254.81
2023-04-07T11:58:18.883Z,95264.09
2023-04-07T11:59:23.281Z,95261.22
2023-04-07T12:00:27.505Z,95259.19
2023-04-07T12:01:45.076Z,95263.50
2023-04-07T12:02:47.256Z,95261.31
2023-04-07T12:04:02.403Z,95260.19
2023-04-07T12:05:05.509Z,95253.09
2023-04-07T12:06:07.400Z,95253.56
2023-04-07T12:07:09.757Z,95248.78
2023-04-07T12:08:13.910Z,95256.72
2023-04-07T12:09:30.428Z,95261.41
2023-04-07T12:10:35.131Z,95261.44
2023-04-07T12:11:49.143Z,95260.06
2023-04-07T12:12:51.720Z,95255.47
2023-04-07T12:13:56.671Z,95254.59
2023-04-07T12:15:01.795Z,95251.97
2023-04-07T12:16:03.906Z,95253.88
2023-04-07T12:17:07.535Z,95250.00
2023-04-07T12:18:09.404Z,95254.38
2023-04-07T12:19:11.037Z,95250.94
2023-04-07T12:20:13.569Z,95251.06
2023-04-07T12:21:17.909Z,95248.28
2023-04-07T12:22:20.272Z,95249.22
2023-04-07T12:23:22.742Z,95250.38
2023-04-07T12:24:24.684Z,95251.03
2023-04-07T12:25:29.817Z,95253.44
2023-04-07T12:26:31.635Z,95248.72
2023-04-07T12:27:42.578Z,95251.81
2023-04-07T12:28:45.423Z,95246.09
2023-04-07T12:29:49.291Z,95250.06
2023-04-07T12:30:51.094Z,95250.72
2023-04-07T12:31:56.285Z,95252.06
2023-04-07T12:32:58.098Z,95261.31
2023-04-07T12:33:59.683Z,95253.53
2023-04-07T12:35:01.527Z,95254.28
2023-04-07T12:36:05.868Z,95249.59
2023-04-07T12:37:07.777Z,95248.66
2023-04-07T12:38:09.440Z,95253.94
2023-04-07T12:39:14.038Z,95253.63
2023-04-07T12:40:17.877Z,95253.97
2023-04-07T12:41:19.649Z,95249.69
2023-04-07T12:42:21.147Z,95249.06